createdAt,value
2016-05-21T00:00:11.357Z,89.09
2016-05-21T00:01:11.516Z,89
2016-05-21T00:02:11.519Z,89.09
2016-05-21T00:03:11.522Z,89.09
2016-05-21T00:04:11.508Z,89.28
2016-05-21T00:05:11.511Z,89
2016-05-21T00:06:11.357Z,88.9
2016-05-21T00:07:11.517Z,88.8
2016-05-21T00:08:11.503Z,89.56
2016-05-21T00:09:11.538Z,89.47
2016-05-21T00:10:11.524Z,89.09
2016-05-21T00:11:11.367Z,89.47
2016-05-21T00:12:11.542Z,89.09
2016-05-21T00:13:11.560Z,89.18
2016-05-21T00:14:11.578Z,89.66
2016-05-21T00:15:11.582Z,89.09
2016-05-21T00:16:11.593Z,89.47
2016-05-21T00:17:11.601Z,89.28
2016-05-21T00:18:11.610Z,89.18
2016-05-21T00:19:11.618Z,89.66
2016-05-21T00:20:11.610Z,89.75
2016-05-21T00:21:11.616Z,89.85
2016-05-21T00:22:11.622Z,89.85
2016-05-21T00:23:11.626Z,89.75
2016-05-21T00:24:11.632Z,89.47
2016-05-21T00:25:11.636Z,89.37
2016-05-21T00:26:12.171Z,89.56
2016-05-21T00:27:11.629Z,89.85
2016-05-21T00:28:11.647Z,89.9
2016-05-21T00:29:11.635Z,89.56
2016-05-21T00:30:11.638Z,89.56
2016-05-21T00:31:11.642Z,89.66
2016-05-21T00:32:11.645Z,90.14
2016-05-21T00:33:11.631Z,90.23
2016-05-21T00:34:11.478Z,90.66
2016-05-21T00:35:11.637Z,90.37
2016-05-21T00:36:11.639Z,90.19
2016-05-21T00:37:11.626Z,90.42
2016-05-21T00:38:11.629Z,90.89
2016-05-21T00:39:11.631Z,90.61
2016-05-21T00:40:11.634Z,90.89
2016-05-21T00:41:11.653Z,90.89
2016-05-21T00:42:11.639Z,90.52
2016-05-21T00:43:11.642Z,90.7
2016-05-21T00:44:11.644Z,90.75
2016-05-21T00:45:11.633Z,90.99
2016-05-21T00:46:11.651Z,90.89
2016-05-21T00:47:11.481Z,91.47
2016-05-21T00:48:11.625Z,91.47
2016-05-21T00:49:11.627Z,91.28
2016-05-21T00:50:11.630Z,91.18
2016-05-21T00:51:11.633Z,91.28
2016-05-21T00:52:11.635Z,91.28
2016-05-21T00:53:11.638Z,91.28
2016-05-21T00:54:11.640Z,90.99
2016-05-21T00:55:11.643Z,91.52
2016-05-21T00:56:11.490Z,91.42
2016-05-21T00:57:11.632Z,91.52
2016-05-21T00:58:11.635Z,91.42
2016-05-21T00:59:11.638Z,91.33
2016-05-21T01:00:11.626Z,91.52
2016-05-21T01:01:11.629Z,91.23
2016-05-21T01:02:11.631Z,91.04
2016-05-21T01:03:11.634Z,91.13
2016-05-21T01:04:11.637Z,91.04
2016-05-21T01:05:11.483Z,91.23
2016-05-21T01:06:11.626Z,91.52
2016-05-21T01:07:11.629Z,91.42
2016-05-21T01:08:11.631Z,91.52
2016-05-21T01:09:11.634Z,91.33
2016-05-21T01:10:11.636Z,91.52
2016-05-21T01:11:11.624Z,91.33
2016-05-21T01:12:11.627Z,91.99
2016-05-21T01:13:11.629Z,91.8
2016-05-21T01:14:11.476Z,91.61
2016-05-21T01:15:11.619Z,92.18
2016-05-21T01:16:11.638Z,91.99
2016-05-21T01:17:11.641Z,92.08
2016-05-21T01:18:11.627Z,92.18
2016-05-21T01:19:11.646Z,92.08
2016-05-21T01:20:11.633Z,91.8
2016-05-21T01:21:11.635Z,91.89
2016-05-21T01:22:11.638Z,91.61
2016-05-21T01:23:11.625Z,92.66
2016-05-21T01:24:11.627Z,91.89
2016-05-21T01:25:11.630Z,92.37
2016-05-21T01:26:11.632Z,92.56
2016-05-21T01:27:11.620Z,92.66
2016-05-21T01:28:11.623Z,91.71
2016-05-21T01:29:11.469Z,92.08
2016-05-21T01:30:11.629Z,92.56
2016-05-21T01:31:11.631Z,92.27
2016-05-21T01:32:11.649Z,91.75
2016-05-21T01:33:11.621Z,91.8
2016-05-21T01:34:11.623Z,92.75
2016-05-21T01:35:11.642Z,91.94
2016-05-21T01:36:11.473Z,92.61
2016-05-21T01:37:11.631Z,92.42
2016-05-21T01:38:11.634Z,92.23
2016-05-21T01:39:11.465Z,91.75
2016-05-21T01:40:11.623Z,91.85
2016-05-21T01:41:11.642Z,92.13
2016-05-21T01:42:11.629Z,92.04
2016-05-21T01:43:11.632Z,92.42
2016-05-21T01:44:11.635Z,92.04
2016-05-21T01:45:11.622Z,92.32
2016-05-21T01:46:11.469Z,92.23
2016-05-21T01:47:11.627Z,92.42
2016-05-21T01:48:11.630Z,92.23
2016-05-21T01:49:11.617Z,92.42
2016-05-21T01:50:11.635Z,91.85
2016-05-21T01:51:11.622Z,92.23
2016-05-21T01:52:11.624Z,92.42
2016-05-21T01:53:11.627Z,92.42
2016-05-21T01:54:11.630Z,92.23
2016-05-21T01:55:11.618Z,92.51
2016-05-21T01:56:11.792Z,92.23
2016-05-21T01:57:11.623Z,92.23
2016-05-21T01:58:11.626Z,92.32
2016-05-21T01:59:11.629Z,92.23
2016-05-21T02:00:11.615Z,92.13
2016-05-21T02:01:11.618Z,92.13
2016-05-21T02:02:11.620Z,92.32
2016-05-21T02:03:11.623Z,92.61
2016-05-21T02:04:11.626Z,92.71
2016-05-21T02:05:11.628Z,92.13
2016-05-21T02:06:11.615Z,93.08
2016-05-21T02:07:11.618Z,93.18
2016-05-21T02:08:11.636Z,92.9
2016-05-21T02:09:11.639Z,92.8
2016-05-21T02:10:11.626Z,92.71
2016-05-21T02:11:11.629Z,92.61
2016-05-21T02:12:11.632Z,92.9
2016-05-21T02:13:11.619Z,92.71
2016-05-21T02:14:11.622Z,92.51
2016-05-21T02:15:11.609Z,92.71
2016-05-21T02:16:11.611Z,92.61
2016-05-21T02:17:11.614Z,92.71
2016-05-21T02:18:11.616Z,92.71
2016-05-21T02:19:11.619Z,92.8
2016-05-21T02:20:11.622Z,93.46
2016-05-21T02:21:11.625Z,93.56
2016-05-21T02:22:11.627Z,93.18
2016-05-21T02:23:11.614Z,93.37
2016-05-21T02:24:11.458Z,93.37
2016-05-21T02:25:11.620Z,93.27
2016-05-21T02:26:11.622Z,93.18
2016-05-21T02:27:11.624Z,93.27
2016-05-21T02:28:11.628Z,93.37
2016-05-21T02:29:11.615Z,93.37
2016-05-21T02:30:11.615Z,93.37
2016-05-21T02:31:11.618Z,93.27
2016-05-21T02:32:11.621Z,93.37
2016-05-21T02:33:11.623Z,93.27
2016-05-21T02:34:11.610Z,93.65
2016-05-21T02:35:11.612Z,93.84
2016-05-21T02:36:11.616Z,93.94
2016-05-21T02:37:11.617Z,93.94
2016-05-21T02:38:11.606Z,93.94
2016-05-21T02:39:11.609Z,93.65
2016-05-21T02:40:11.454Z,93.65
2016-05-21T02:41:11.975Z,93.84
2016-05-21T02:42:11.616Z,94.13
2016-05-21T02:43:11.603Z,93.99
2016-05-21T02:44:11.622Z,94.32
2016-05-21T02:45:11.608Z,94.08
2016-05-21T02:46:11.595Z,94.27
2016-05-21T02:47:11.613Z,94.08
2016-05-21T02:48:11.616Z,94.27
2016-05-21T02:49:11.603Z,93.89
2016-05-21T02:50:11.606Z,93.7
2016-05-21T02:51:11.625Z,93.8
2016-05-21T02:52:11.627Z,93.89
2016-05-21T02:53:11.458Z,93.99
2016-05-21T02:54:11.649Z,93.89
2016-05-21T02:55:12.026Z,93.89
2016-05-21T02:56:11.607Z,93.89
2016-05-21T02:57:11.610Z,93.8
2016-05-21T02:58:11.612Z,93.99
2016-05-21T02:59:11.615Z,94.08
2016-05-21T03:00:11.602Z,93.99
2016-05-21T03:01:11.605Z,94.46
2016-05-21T03:02:11.607Z,94.56
2016-05-21T03:03:11.453Z,94.27
2016-05-21T03:04:11.597Z,93.99
2016-05-21T03:05:11.599Z,94.27
2016-05-21T03:06:11.602Z,94.56
2016-05-21T03:07:11.604Z,94.08
2016-05-21T03:08:11.592Z,94.08
2016-05-21T03:09:11.595Z,93.99
2016-05-21T03:10:11.598Z,94.27
2016-05-21T03:11:11.897Z,94.46
2016-05-21T03:12:11.603Z,94.27
2016-05-21T03:13:11.450Z,94.27
2016-05-21T03:14:11.608Z,94.18
2016-05-21T03:15:11.595Z,94.27
2016-05-21T03:16:11.598Z,94.46
2016-05-21T03:17:11.600Z,94.27
2016-05-21T03:18:11.588Z,94.46
2016-05-21T03:19:11.434Z,94.37
2016-05-21T03:20:11.593Z,94.74
2016-05-21T03:21:11.597Z,94.37
2016-05-21T03:22:11.583Z,94.74
2016-05-21T03:23:11.586Z,94.93
2016-05-21T03:24:11.589Z,94.84
2016-05-21T03:25:11.607Z,94.18
2016-05-21T03:26:11.844Z,94.27
2016-05-21T03:27:11.596Z,95.22
2016-05-21T03:28:11.600Z,94.18
2016-05-21T03:29:11.586Z,94.56
2016-05-21T03:30:11.588Z,94.93
2016-05-21T03:31:11.591Z,94.93
2016-05-21T03:32:11.610Z,94.93
2016-05-21T03:33:11.596Z,95.03
2016-05-21T03:34:11.599Z,94.56
2016-05-21T03:35:11.587Z,94.84
2016-05-21T03:36:11.590Z,95.22
2016-05-21T03:37:11.592Z,94.74
2016-05-21T03:38:11.595Z,94.84
2016-05-21T03:39:11.426Z,94.93
2016-05-21T03:40:11.600Z,94.84
2016-05-21T03:41:11.446Z,94.65
2016-05-21T03:42:11.590Z,94.93
2016-05-21T03:43:11.576Z,94.74
2016-05-21T03:44:11.579Z,95.22
2016-05-21T03:45:11.598Z,95.41
2016-05-21T03:46:11.584Z,95.03
2016-05-21T03:47:11.587Z,95.03
2016-05-21T03:48:11.590Z,95.22
2016-05-21T03:49:11.593Z,95.12
2016-05-21T03:50:11.595Z,95.41
2016-05-21T03:51:11.583Z,95.12
2016-05-21T03:52:11.586Z,95.03
2016-05-21T03:53:11.432Z,95.6
2016-05-21T03:54:11.435Z,94.98
2016-05-21T03:55:11.594Z,95.46
2016-05-21T03:56:11.596Z,95.55
2016-05-21T03:57:11.427Z,95.27
2016-05-21T03:58:11.586Z,95.84
2016-05-21T03:59:11.433Z,95.65
2016-05-21T04:00:11.576Z,95.75
2016-05-21T04:01:11.579Z,96.03
2016-05-21T04:02:11.581Z,96.22
2016-05-21T04:03:11.584Z,95.98
2016-05-21T04:04:11.587Z,96.45
2016-05-21T04:05:11.590Z,96.26
2016-05-21T04:06:11.420Z,96.45
2016-05-21T04:07:11.579Z,96.69
2016-05-21T04:08:11.582Z,96.89
2016-05-21T04:09:11.428Z,96.65
2016-05-21T04:10:11.587Z,96.26
2016-05-21T04:11:11.590Z,96.08
2016-05-21T04:12:11.576Z,96.36
2016-05-21T04:13:11.579Z,96.7
2016-05-21T04:14:11.582Z,95.94
2016-05-21T04:15:11.585Z,95.75
2016-05-21T04:16:11.588Z,95.27
2016-05-21T04:17:11.575Z,94.79
2016-05-21T04:18:11.578Z,94.22
2016-05-21T04:19:11.580Z,94.93
2016-05-21T04:20:11.583Z,94.17
2016-05-21T04:21:11.586Z,94.17
2016-05-21T04:22:11.589Z,94.08
2016-05-21T04:23:11.575Z,94.37
2016-05-21T04:24:11.578Z,94.41
2016-05-21T04:25:11.580Z,94.13
2016-05-21T04:26:11.756Z,94.32
2016-05-21T04:27:11.569Z,94.13
2016-05-21T04:28:11.416Z,93.79
2016-05-21T04:29:11.435Z,93.88
2016-05-21T04:30:11.578Z,93.98
2016-05-21T04:31:11.425Z,93.7
2016-05-21T04:32:11.568Z,93.46
2016-05-21T04:33:11.586Z,93.27
2016-05-21T04:34:11.573Z,92.6
2016-05-21T04:35:11.576Z,92.79
2016-05-21T04:36:11.579Z,92.32
2016-05-21T04:37:11.596Z,91.74
2016-05-21T04:38:11.585Z,90.93
2016-05-21T04:39:11.587Z,90.17
2016-05-21T04:40:11.434Z,89.88
2016-05-21T04:41:11.843Z,89.59
2016-05-21T04:42:11.595Z,88.73
2016-05-21T04:43:11.598Z,87.3
2016-05-21T04:44:11.584Z,87.4
2016-05-21T04:45:11.587Z,86.44
2016-05-21T04:46:11.590Z,85.82
2016-05-21T04:47:11.578Z,85.44
2016-05-21T04:48:11.423Z,84.2
2016-05-21T04:49:11.583Z,83.34
2016-05-21T04:50:11.586Z,82
2016-05-21T04:51:11.589Z,81.18
2016-05-21T04:52:11.591Z,79.85
2016-05-21T04:53:11.594Z,79.65
2016-05-21T04:54:11.596Z,78.6
2016-05-21T04:55:11.599Z,78.31
2016-05-21T04:56:12.180Z,76.5
2016-05-21T04:57:11.605Z,75.35
2016-05-21T04:58:11.591Z,75.3
2016-05-21T04:59:11.593Z,74.53
2016-05-21T05:00:11.597Z,73.58
2016-05-21T05:01:11.599Z,73.58
2016-05-21T05:02:11.602Z,72.66
2016-05-21T05:03:11.604Z,71.89
2016-05-21T05:04:11.607Z,70.94
2016-05-21T05:05:11.610Z,69.92
2016-05-21T05:06:11.613Z,68.52
2016-05-21T05:07:11.599Z,67.18
2016-05-21T05:08:11.602Z,65.78
2016-05-21T05:09:11.604Z,64.72
2016-05-21T05:10:11.608Z,63.6
2016-05-21T05:11:11.610Z,62.46
2016-05-21T05:12:11.613Z,61.24
2016-05-21T05:13:11.616Z,59.04
2016-05-21T05:14:11.618Z,58.65
2016-05-21T05:15:11.449Z,57.6
2016-05-21T05:16:11.624Z,57.06
2016-05-21T05:17:11.627Z,56.51
2016-05-21T05:18:11.629Z,54.3
2016-05-21T05:19:11.632Z,53.75
2016-05-21T05:20:11.634Z,52.69
2016-05-21T05:21:11.481Z,52.05
2016-05-21T05:22:11.625Z,50.82
2016-05-21T05:23:11.627Z,49.22
2016-05-21T05:24:11.630Z,48.38
2016-05-21T05:25:11.633Z,46.77
2016-05-21T05:26:11.650Z,45.94
2016-05-21T05:27:11.638Z,44.52
2016-05-21T05:28:11.641Z,43.58
2016-05-21T05:29:11.658Z,41.77
2016-05-21T05:30:11.647Z,41.11
2016-05-21T05:31:11.649Z,40.07
2016-05-21T05:32:11.651Z,39.29
2016-05-21T05:33:11.497Z,38.54
2016-05-21T05:34:11.657Z,37.79
2016-05-21T05:35:11.660Z,36.63
2016-05-21T05:36:11.677Z,35.6
2016-05-21T05:37:11.666Z,34.54
2016-05-21T05:38:11.526Z,33.39
2016-05-21T05:39:11.670Z,32.54
2016-05-21T05:40:11.688Z,31.49
2016-05-21T05:41:11.691Z,30.54
2016-05-21T05:42:11.537Z,29.68
2016-05-21T05:43:11.540Z,28.72
2016-05-21T05:44:11.699Z,27.86
2016-05-21T05:45:11.702Z,27.39
2016-05-21T05:46:11.704Z,26.33
2016-05-21T05:47:11.707Z,26.04
2016-05-21T05:48:11.709Z,25.47
2016-05-21T05:49:11.728Z,24.61
2016-05-21T05:50:11.715Z,24.13
2016-05-21T05:51:11.734Z,23.75
2016-05-21T05:52:11.736Z,23.36
2016-05-21T05:53:11.755Z,23.36
2016-05-21T05:54:11.742Z,22.59
2016-05-21T05:55:11.588Z,21.92
2016-05-21T05:56:11.747Z,21.15
2016-05-21T05:57:11.750Z,20.67
2016-05-21T05:58:11.753Z,19.8
2016-05-21T05:59:11.771Z,19.62
2016-05-21T06:00:11.758Z,18.27
2016-05-21T06:01:11.619Z,17.97
2016-05-21T06:02:11.779Z,17.5
2016-05-21T06:03:11.782Z,17.12
2016-05-21T06:04:11.800Z,16.54
2016-05-21T06:05:11.788Z,16.16
2016-05-21T06:06:11.790Z,15.48
2016-05-21T06:07:11.808Z,14.51
2016-05-21T06:08:11.810Z,14.42
2016-05-21T06:09:11.813Z,13.64
2016-05-21T06:10:11.660Z,13.54
2016-05-21T06:11:11.835Z,13.35
2016-05-21T06:12:11.837Z,12.58
2016-05-21T06:13:11.840Z,12.97
2016-05-21T06:14:11.843Z,12.48
2016-05-21T06:15:11.860Z,12.09
2016-05-21T06:16:11.863Z,12
2016-05-21T06:17:11.866Z,11.22
2016-05-21T06:18:11.868Z,11.02
2016-05-21T06:19:11.871Z,11.32
2016-05-21T06:20:11.890Z,11.11
2016-05-21T06:21:11.736Z,10.44
2016-05-21T06:22:11.739Z,10.24
2016-05-21T06:23:11.898Z,10.24
2016-05-21T06:24:11.901Z,9.94
2016-05-21T06:25:11.919Z,9.65
2016-05-21T06:26:11.922Z,9.16
2016-05-21T06:27:11.925Z,9.06
2016-05-21T06:28:11.942Z,9.06
2016-05-21T06:29:11.945Z,8.77
2016-05-21T06:30:11.948Z,8.48
2016-05-21T06:31:11.966Z,8
2016-05-21T06:32:11.985Z,7.81
2016-05-21T06:33:11.815Z,7.32
2016-05-21T06:34:11.974Z,6.73
2016-05-21T06:35:11.836Z,6.44
2016-05-21T06:36:11.996Z,5.94
2016-05-21T06:37:11.999Z,6.05
2016-05-21T06:38:12.016Z,5.65
2016-05-21T06:39:12.019Z,6.05
2016-05-21T06:40:12.022Z,5.75
2016-05-21T06:41:12.510Z,5.55
2016-05-21T06:42:11.886Z,5.25
2016-05-21T06:43:12.046Z,5.84
2016-05-21T06:44:12.063Z,5.84
2016-05-21T06:45:12.066Z,6.13
2016-05-21T06:46:12.068Z,6.23
2016-05-21T06:47:11.931Z,5.93
2016-05-21T06:48:12.106Z,5.54
2016-05-21T06:49:12.109Z,6.04
2016-05-21T06:50:12.127Z,6.04
2016-05-21T06:51:12.129Z,5.44
2016-05-21T06:52:12.132Z,5.25
2016-05-21T06:53:12.134Z,4.96
2016-05-21T06:54:12.137Z,4.76
2016-05-21T06:55:12.140Z,4.37
2016-05-21T06:56:12.206Z,4.17
2016-05-21T06:57:12.161Z,4.17
2016-05-21T06:58:12.180Z,4.57
2016-05-21T06:59:12.183Z,4.36
2016-05-21T07:00:12.200Z,4.66
2016-05-21T07:01:12.203Z,4.56
2016-05-21T07:02:12.222Z,4.06
2016-05-21T07:03:12.224Z,4.27
2016-05-21T07:04:12.242Z,4.16
2016-05-21T07:05:12.245Z,4.56
2016-05-21T07:06:12.248Z,4.56
2016-05-21T07:07:12.266Z,4.55
2016-05-21T07:08:12.285Z,3.86
2016-05-21T07:09:12.288Z,3.77
2016-05-21T07:10:12.290Z,3.77
2016-05-21T07:11:12.307Z,3.37
2016-05-21T07:12:12.311Z,2.58
2016-05-21T07:13:12.329Z,2.68
2016-05-21T07:14:12.332Z,2.39
2016-05-21T07:15:12.351Z,2.39
2016-05-21T07:16:12.196Z,2.09
2016-05-21T07:17:12.199Z,1.99
2016-05-21T07:18:12.374Z,2.09
2016-05-21T07:19:12.377Z,2.19
2016-05-21T07:20:12.395Z,1.79
2016-05-21T07:21:12.413Z,2.19
2016-05-21T07:22:12.416Z,2.09
2016-05-21T07:23:12.418Z,2.19
2016-05-21T07:24:12.281Z,2.19
2016-05-21T07:25:12.439Z,1.99
2016-05-21T07:26:12.459Z,1.99
2016-05-21T07:27:12.476Z,2.09
2016-05-21T07:28:12.478Z,2.29
2016-05-21T07:29:12.482Z,1.99
2016-05-21T07:30:12.500Z,1.89
2016-05-21T07:31:12.347Z,1.89
2016-05-21T07:32:12.506Z,1.39
2016-05-21T07:33:12.539Z,1.59
2016-05-21T07:34:12.527Z,2.19
2016-05-21T07:35:12.388Z,2.09
2016-05-21T07:36:12.563Z,2.48
2016-05-21T07:37:12.566Z,2.98
2016-05-21T07:38:12.583Z,3.28
2016-05-21T07:39:12.586Z,3.57
2016-05-21T07:40:12.605Z,3.87
2016-05-21T07:41:12.452Z,4.36
2016-05-21T07:42:12.626Z,4.95
2016-05-21T07:43:12.629Z,4.94
2016-05-21T07:44:12.632Z,4.85
2016-05-21T07:45:12.649Z,4.75
2016-05-21T07:46:12.668Z,4.75
2016-05-21T07:47:12.671Z,4.85
2016-05-21T07:48:12.674Z,4.26
2016-05-21T07:49:12.707Z,4.16
2016-05-21T07:50:12.695Z,3.77
2016-05-21T07:51:12.713Z,4.06
2016-05-21T07:52:12.715Z,3.77
2016-05-21T07:53:12.733Z,4.06
2016-05-21T07:54:12.737Z,3.67
2016-05-21T07:55:12.754Z,3.87
2016-05-21T07:56:12.961Z,4.16
2016-05-21T07:57:12.776Z,4.26
2016-05-21T07:58:12.778Z,4.75
2016-05-21T07:59:12.781Z,4.46
2016-05-21T08:00:12.800Z,4.55
2016-05-21T08:01:12.803Z,4.55
2016-05-21T08:02:12.805Z,4.06
2016-05-21T08:03:12.823Z,3.77
2016-05-21T08:04:12.841Z,3.77
2016-05-21T08:05:12.844Z,3.17
2016-05-21T08:06:12.863Z,2.98
2016-05-21T08:07:12.866Z,2.78
2016-05-21T08:08:12.868Z,2.48
2016-05-21T08:09:12.871Z,2.39
2016-05-21T08:10:12.889Z,2.09
2016-05-21T08:11:12.751Z,1.99
2016-05-21T08:12:12.910Z,2.29
2016-05-21T08:13:12.928Z,1.99
2016-05-21T08:14:12.930Z,2.09
2016-05-21T08:15:12.950Z,1.89
2016-05-21T08:16:12.951Z,2.78
2016-05-21T08:17:12.955Z,2.48
2016-05-21T08:18:12.973Z,2.58
2016-05-21T08:19:12.976Z,2.39
2016-05-21T08:20:12.994Z,2.88
2016-05-21T08:21:12.996Z,3.08
2016-05-21T08:22:12.843Z,2.88
2016-05-21T08:23:13.002Z,3.18
2016-05-21T08:24:13.020Z,2.88
2016-05-21T08:25:13.039Z,2.68
2016-05-21T08:26:13.042Z,2.58
2016-05-21T08:27:13.325Z,1.99
2016-05-21T08:28:12.906Z,1.69
2016-05-21T08:29:13.065Z,1.29
2016-05-21T08:30:13.068Z,0.99
2016-05-21T08:31:13.086Z,0.4
2016-05-21T08:32:13.104Z,0.3
2016-05-21T08:33:13.106Z,0.2
2016-05-21T08:34:13.109Z,0.6
2016-05-21T08:35:13.128Z,0.8
2016-05-21T08:36:13.131Z,0.5
2016-05-21T08:37:13.150Z,0.5
2016-05-21T08:38:13.152Z,0.1
2016-05-21T08:39:13.014Z,0
2016-05-21T08:40:13.188Z,0
2016-05-21T08:41:13.191Z,0
2016-05-21T08:42:13.069Z,0
2016-05-21T08:43:13.055Z,0
2016-05-21T08:44:13.215Z,0
2016-05-21T08:45:13.218Z,0
2016-05-21T08:46:13.235Z,0
2016-05-21T08:47:13.238Z,0
2016-05-21T08:48:13.241Z,0
2016-05-21T08:49:13.260Z,0
2016-05-21T08:50:13.121Z,0
2016-05-21T08:51:13.124Z,0
2016-05-21T08:52:13.282Z,0
2016-05-21T08:53:13.145Z,0
2016-05-21T08:54:13.304Z,0
2016-05-21T08:55:13.307Z,0
2016-05-21T08:56:13.325Z,0
2016-05-21T08:57:13.328Z,0
2016-05-21T08:58:13.346Z,0
2016-05-21T08:59:13.349Z,0
2016-05-21T09:00:13.351Z,0
2016-05-21T09:01:13.386Z,0
2016-05-21T09:02:13.372Z,0
2016-05-21T09:03:13.392Z,0
2016-05-21T09:04:13.237Z,0
2016-05-21T09:05:13.255Z,0
2016-05-21T09:06:13.415Z,0
2016-05-21T09:07:13.417Z,0
2016-05-21T09:08:13.436Z,0
2016-05-21T09:09:13.423Z,0
2016-05-21T09:10:13.442Z,0
2016-05-21T09:11:13.569Z,0
2016-05-21T09:12:13.837Z,0
2016-05-21T09:13:13.464Z,0
2016-05-21T09:14:13.311Z,0
2016-05-21T09:15:13.486Z,0
2016-05-21T09:16:13.488Z,0
2016-05-21T09:17:13.491Z,0
2016-05-21T09:18:13.516Z,0
2016-05-21T09:19:13.556Z,0
2016-05-21T09:20:13.579Z,0
2016-05-21T09:21:13.603Z,0
2016-05-21T09:22:13.642Z,0
2016-05-21T09:23:13.651Z,0
2016-05-21T09:24:13.662Z,0.2
2016-05-21T09:25:13.689Z,0.9
2016-05-21T09:26:13.683Z,1
2016-05-21T09:27:14.287Z,1.3
2016-05-21T09:28:13.714Z,1.3
2016-05-21T09:29:13.719Z,1.4
2016-05-21T09:30:13.725Z,2
2016-05-21T09:31:13.730Z,2.4
2016-05-21T09:32:13.752Z,3.09
2016-05-21T09:33:13.756Z,3.78
2016-05-21T09:34:13.759Z,4.77
2016-05-21T09:35:13.764Z,5.76
2016-05-21T09:36:13.782Z,6.44
2016-05-21T09:37:13.771Z,7.61
2016-05-21T09:38:13.789Z,8.69
2016-05-21T09:39:13.809Z,9.16
2016-05-21T09:40:13.795Z,9.94
2016-05-21T09:41:14.048Z,11.1
2016-05-21T09:42:13.833Z,11.88
2016-05-21T09:43:13.665Z,12.95
2016-05-21T09:44:13.823Z,14.11
2016-05-21T09:45:13.825Z,15.27
2016-05-21T09:46:13.828Z,16.32
2016-05-21T09:47:13.831Z,17.29
2016-05-21T09:48:13.834Z,18.54
2016-05-21T09:49:13.852Z,19.68
2016-05-21T09:50:13.853Z,20.35
2016-05-21T09:51:13.857Z,21.31
2016-05-21T09:52:13.859Z,21.98
2016-05-21T09:53:13.894Z,22.85
2016-05-21T09:54:13.864Z,24
2016-05-21T09:55:13.883Z,24.66
2016-05-21T09:56:13.886Z,25.52
2016-05-21T09:57:13.794Z,25.6
2016-05-21T09:58:13.891Z,25.41
2016-05-21T09:59:13.894Z,26.27
2016-05-21T10:00:13.897Z,26.85
2016-05-21T10:01:13.899Z,27.14
2016-05-21T10:02:13.902Z,27.24
2016-05-21T10:03:13.905Z,27.33
2016-05-21T10:04:13.767Z,27.72
2016-05-21T10:05:13.926Z,28.02
2016-05-21T10:06:13.772Z,27.62
2016-05-21T10:07:13.932Z,27.82
2016-05-21T10:08:13.934Z,28.3
2016-05-21T10:09:13.952Z,28.2
2016-05-21T10:10:13.955Z,28.2
2016-05-21T10:11:13.801Z,28.69
2016-05-21T10:12:13.960Z,28.49
2016-05-21T10:13:13.963Z,28.97
2016-05-21T10:14:13.965Z,29.15
2016-05-21T10:15:13.968Z,29.53
2016-05-21T10:16:13.970Z,29.73
2016-05-21T10:17:13.974Z,29.63
2016-05-21T10:18:13.976Z,29.83
2016-05-21T10:19:13.978Z,30.11
2016-05-21T10:20:13.997Z,30.51
2016-05-21T10:21:14.001Z,30.6
2016-05-21T10:22:14.003Z,30.69
2016-05-21T10:23:14.006Z,31.09
2016-05-21T10:24:14.009Z,31.47
2016-05-21T10:25:14.027Z,31.86
2016-05-21T10:26:14.029Z,32.06
2016-05-21T10:27:14.032Z,31.74
2016-05-21T10:28:14.019Z,31.94
2016-05-21T10:29:14.038Z,32.33
2016-05-21T10:30:14.040Z,31.84
2016-05-21T10:31:14.043Z,32.04
2016-05-21T10:32:14.046Z,31.56
2016-05-21T10:33:14.049Z,31.65
2016-05-21T10:34:14.051Z,31.94
2016-05-21T10:35:14.054Z,31.56
2016-05-21T10:36:14.057Z,31.74
2016-05-21T10:37:14.060Z,31.36
2016-05-21T10:38:14.077Z,31.26
2016-05-21T10:39:14.065Z,31.56
2016-05-21T10:40:14.068Z,31.84
2016-05-21T10:41:14.085Z,31.65
2016-05-21T10:42:14.665Z,32.23
2016-05-21T10:43:14.090Z,31.56
2016-05-21T10:44:14.093Z,32.23
2016-05-21T10:45:14.112Z,31.74
2016-05-21T10:46:14.098Z,31.94
2016-05-21T10:47:14.101Z,31.65
2016-05-21T10:48:14.104Z,30.58
2016-05-21T10:49:14.107Z,30.1
2016-05-21T10:50:14.109Z,29.33
2016-05-21T10:51:14.128Z,28.36
2016-05-21T10:52:14.131Z,27.58
2016-05-21T10:53:14.118Z,27.67
2016-05-21T10:54:14.136Z,27.28
2016-05-21T10:55:14.123Z,26.41
2016-05-21T10:56:14.704Z,25.05
2016-05-21T10:57:14.160Z,25.44
2016-05-21T10:58:14.146Z,25.44
2016-05-21T10:59:14.150Z,25.05
2016-05-21T11:00:14.167Z,25.93
2016-05-21T11:01:14.155Z,26.21
2016-05-21T11:02:14.157Z,26.41
2016-05-21T11:03:14.161Z,26.41
2016-05-21T11:04:14.163Z,26.12
2016-05-21T11:05:14.165Z,26.68
2016-05-21T11:06:14.168Z,26.98
2016-05-21T11:07:14.186Z,27.47
2016-05-21T11:08:14.189Z,27.76
2016-05-21T11:09:14.191Z,27.57
2016-05-21T11:10:14.194Z,27.57
2016-05-21T11:11:14.197Z,27.47
2016-05-21T11:12:14.700Z,27.57
2016-05-21T11:13:14.202Z,28.04
2016-05-21T11:14:14.205Z,28.43
2016-05-21T11:15:14.052Z,28.62
2016-05-21T11:16:14.210Z,28.33
2016-05-21T11:17:14.213Z,28.72
2016-05-21T11:18:14.216Z,28.43
2016-05-21T11:19:14.218Z,28.73
2016-05-21T11:20:14.221Z,28.62
2016-05-21T11:21:14.068Z,28.64
2016-05-21T11:22:14.242Z,28.64
2016-05-21T11:23:14.073Z,28.34
2016-05-21T11:24:14.248Z,28.83
2016-05-21T11:25:14.234Z,28.54
2016-05-21T11:26:14.097Z,29.12
2016-05-21T11:27:15.130Z,29.22
2016-05-21T11:28:14.259Z,29.5
2016-05-21T11:29:14.261Z,29.7
2016-05-21T11:30:14.108Z,29.9
2016-05-21T11:31:14.266Z,29.8
2016-05-21T11:32:14.269Z,29.99
2016-05-21T11:33:14.288Z,30.08
2016-05-21T11:34:14.275Z,30.36
2016-05-21T11:35:14.277Z,31.04
2016-05-21T11:36:14.296Z,31.63
2016-05-21T11:37:14.283Z,31.34
2016-05-21T11:38:14.286Z,31.54
2016-05-21T11:39:14.288Z,31.44
2016-05-21T11:40:14.291Z,31.15
2016-05-21T11:41:14.293Z,30.86
2016-05-21T11:42:14.452Z,30.96
2016-05-21T11:43:14.314Z,30.86
2016-05-21T11:44:14.318Z,30.96
2016-05-21T11:45:14.320Z,30.76
2016-05-21T11:46:14.323Z,30.66
2016-05-21T11:47:14.326Z,30.28
2016-05-21T11:48:14.329Z,29.9
2016-05-21T11:49:14.331Z,29.6
2016-05-21T11:50:14.334Z,30.28
2016-05-21T11:51:14.336Z,30.47
2016-05-21T11:52:14.339Z,30.18
2016-05-21T11:53:14.342Z,29.6
2016-05-21T11:54:14.359Z,28.92
2016-05-21T11:55:14.347Z,28.64
2016-05-21T11:56:14.209Z,28.54
2016-05-21T11:57:14.368Z,28.92
2016-05-21T11:58:14.370Z,29.41
2016-05-21T11:59:14.373Z,29.88
2016-05-21T12:00:14.375Z,30.65
2016-05-21T12:01:14.378Z,30.63
2016-05-21T12:02:14.380Z,30.44
2016-05-21T12:03:14.384Z,29.96
2016-05-21T12:04:14.387Z,29.97
2016-05-21T12:05:14.374Z,29.88
2016-05-21T12:06:14.376Z,29.59
2016-05-21T12:07:14.379Z,29.5
2016-05-21T12:08:14.397Z,29.32
2016-05-21T12:09:14.400Z,29.41
2016-05-21T12:10:14.403Z,29.32
2016-05-21T12:11:14.405Z,29.6
2016-05-21T12:12:14.424Z,30.08
2016-05-21T12:13:14.410Z,30.28
2016-05-21T12:14:14.413Z,30.57
2016-05-21T12:15:14.416Z,30.66
2016-05-21T12:16:14.419Z,30.57
2016-05-21T12:17:14.437Z,30.28
2016-05-21T12:18:14.440Z,29.22
2016-05-21T12:19:14.427Z,28.92
2016-05-21T12:20:14.429Z,28.34
2016-05-21T12:21:14.432Z,28.15
2016-05-21T12:22:14.451Z,28.36
2016-05-21T12:23:14.437Z,28.07
2016-05-21T12:24:14.300Z,27.29
2016-05-21T12:25:14.459Z,26.32
2016-05-21T12:26:14.461Z,25.16
2016-05-21T12:27:14.308Z,24.29
2016-05-21T12:28:14.467Z,23.81
2016-05-21T12:29:14.469Z,23.13
2016-05-21T12:30:14.472Z,22.27
2016-05-21T12:31:14.475Z,21.98
2016-05-21T12:32:14.478Z,21.79
2016-05-21T12:33:14.481Z,21.88
2016-05-21T12:34:14.483Z,21.69
2016-05-21T12:35:14.486Z,21.79
2016-05-21T12:36:14.488Z,21.79
2016-05-21T12:37:14.491Z,21.98
2016-05-21T12:38:14.493Z,21.79
2016-05-21T12:39:14.497Z,21.69
2016-05-21T12:40:14.499Z,21.59
2016-05-21T12:41:14.501Z,21.11
2016-05-21T12:42:14.364Z,21.2
2016-05-21T12:43:14.507Z,21.11
2016-05-21T12:44:14.526Z,20.92
2016-05-21T12:45:14.513Z,21.3
2016-05-21T12:46:14.374Z,21.69
2016-05-21T12:47:14.518Z,21.98
2016-05-21T12:48:14.536Z,22.17
2016-05-21T12:49:14.539Z,21.69
2016-05-21T12:50:14.542Z,21.5
2016-05-21T12:51:14.545Z,20.82
2016-05-21T12:52:14.548Z,20.43
2016-05-21T12:53:14.550Z,20.53
2016-05-21T12:54:14.568Z,21.01
2016-05-21T12:55:14.555Z,21.11
2016-05-21T12:56:14.558Z,21.11
2016-05-21T12:57:14.607Z,21.4
2016-05-21T12:58:14.563Z,21.5
2016-05-21T12:59:14.566Z,21.59
2016-05-21T13:00:14.569Z,21.59
2016-05-21T13:01:14.572Z,21.79
2016-05-21T13:02:14.574Z,22.17
2016-05-21T13:03:14.577Z,21.88
2016-05-21T13:04:14.580Z,22.75
2016-05-21T13:05:14.582Z,22.37
2016-05-21T13:06:14.600Z,21.69